createdAt,value
2018-10-12T00:01:26.520Z,99128.00
2018-10-12T00:03:56.808Z,99137.00
2018-10-12T00:06:27.736Z,99161.00
2018-10-12T00:08:58.564Z,99178.00
2018-10-12T00:11:29.658Z,99185.00
2018-10-12T00:14:00.478Z,99186.00
2018-10-12T00:16:31.165Z,99189.00
2018-10-12T00:19:01.360Z,99193.00
2018-10-12T00:21:32.119Z,99193.00
2018-10-12T00:24:02.657Z,99198.00
2018-10-12T00:26:32.773Z,99197.00
2018-10-12T00:29:02.994Z,99186.00
2018-10-12T00:31:33.774Z,99166.00
2018-10-12T00:34:04.040Z,99156.00
2018-10-12T00:36:34.259Z,99162.00
2018-10-12T00:39:06.089Z,99164.00
2018-10-12T00:41:37.862Z,99164.00
2018-10-12T00:44:08.133Z,99162.00
2018-10-12T00:46:38.596Z,99175.00
2018-10-12T00:49:08.952Z,99174.00
2018-10-12T00:51:39.281Z,99180.00
2018-10-12T00:54:09.524Z,99168.00
2018-10-12T00:56:39.817Z,99177.00
2018-10-12T00:59:10.236Z,99188.00
2018-10-12T01:01:40.507Z,99197.00
2018-10-12T01:04:10.816Z,99187.00
2018-10-12T01:06:41.761Z,99181.00
2018-10-12T01:09:12.475Z,99206.00
2018-10-12T01:11:42.870Z,99175.00
2018-10-12T01:14:13.826Z,99175.00
2018-10-12T01:16:44.081Z,99170.00
2018-10-12T01:19:14.626Z,99163.00
2018-10-12T01:21:44.977Z,99159.00
2018-10-12T01:24:14.944Z,99166.00
2018-10-12T01:26:45.423Z,99154.00
2018-10-12T01:29:15.698Z,99149.00
2018-10-12T01:31:46.029Z,99140.00
2018-10-12T01:34:16.280Z,99130.00
2018-10-12T01:36:46.451Z,99145.00
2018-10-12T01:39:16.575Z,99147.00
2018-10-12T01:41:47.163Z,99153.00
2018-10-12T01:44:17.414Z,99148.00
2018-10-12T01:46:47.613Z,99141.00
2018-10-12T01:49:18.371Z,99159.00
2018-10-12T01:51:48.740Z,99151.00
2018-10-12T01:54:18.872Z,99143.00
2018-10-12T01:56:49.346Z,99135.00
2018-10-12T01:59:19.823Z,99148.00
2018-10-12T02:01:49.817Z,99130.00
2018-10-12T02:04:20.152Z,99129.00
2018-10-12T02:06:50.530Z,99129.00
2018-10-12T02:09:20.892Z,99130.00
2018-10-12T02:11:52.121Z,99116.00
2018-10-12T02:14:22.171Z,99116.00
2018-10-12T02:16:52.604Z,99112.00
2018-10-12T02:19:23.542Z,99115.00
2018-10-12T02:21:53.899Z,99111.00
2018-10-12T02:24:24.262Z,99101.00
2018-10-12T02:26:54.630Z,99098.00
2018-10-12T02:29:24.716Z,99101.00
2018-10-12T02:31:55.560Z,99102.00
2018-10-12T02:34:25.616Z,99098.00
2018-10-12T02:36:57.900Z,99104.00
2018-10-12T02:39:28.462Z,99099.00
2018-10-12T02:41:58.940Z,99090.00
2018-10-12T02:44:29.557Z,99086.00
2018-10-12T02:46:59.736Z,99091.00
2018-10-12T02:49:29.880Z,99090.00
2018-10-12T02:52:00.527Z,99090.00
2018-10-12T02:54:32.631Z,99087.00
2018-10-12T02:57:02.945Z,99074.00
2018-10-12T02:59:34.098Z,99077.00
2018-10-12T03:02:05.101Z,99074.00
2018-10-12T03:04:35.256Z,99062.00
2018-10-12T03:07:05.720Z,99076.00
2018-10-12T03:09:36.666Z,99071.00
2018-10-12T03:12:07.092Z,99071.00
2018-10-12T03:14:38.441Z,99066.00
2018-10-12T03:17:10.328Z,99057.00
2018-10-12T03:19:40.669Z,99044.00
2018-10-12T03:22:10.866Z,99053.00
2018-10-12T03:24:40.965Z,99049.00
2018-10-12T03:27:11.528Z,99054.00
2018-10-12T03:29:42.144Z,99047.00
2018-10-12T03:32:12.304Z,99050.00
2018-10-12T03:34:42.842Z,99043.00
2018-10-12T03:37:13.447Z,99043.00
2018-10-12T03:39:43.560Z,99040.00
2018-10-12T03:42:13.953Z,99040.00
2018-10-12T03:44:44.271Z,99028.00
2018-10-12T03:47:15.095Z,99049.00
2018-10-12T03:49:45.466Z,99050.00
2018-10-12T03:52:15.544Z,99047.00
2018-10-12T03:54:45.913Z,99035.00
2018-10-12T03:57:16.121Z,99053.00
2018-10-12T03:59:46.328Z,99058.00
2018-10-12T04:02:16.537Z,99062.00
2018-10-12T04:04:46.935Z,99052.00
2018-10-12T04:07:17.192Z,99050.00
2018-10-12T04:09:47.524Z,99059.00
2018-10-12T04:12:18.892Z,99059.00
2018-10-12T04:14:49.545Z,99052.00
2018-10-12T04:17:19.609Z,99067.00
2018-10-12T04:19:52.681Z,99068.00
2018-10-12T04:22:24.745Z,99066.00
2018-10-12T04:24:55.071Z,99068.00
2018-10-12T04:27:25.413Z,99082.00
2018-10-12T04:29:55.485Z,99063.00
2018-10-12T04:32:32.414Z,99074.00
2018-10-12T04:35:02.905Z,99083.00
2018-10-12T04:37:33.112Z,99077.00
2018-10-12T04:41:16.267Z,99069.00
2018-10-12T04:43:47.597Z,99069.00
2018-10-12T04:46:22.677Z,99060.00
2018-10-12T04:48:53.433Z,99056.00
2018-10-12T04:51:33.341Z,99042.00
2018-10-12T04:54:04.307Z,99051.00
2018-10-12T04:56:34.610Z,99055.00
2018-10-12T04:59:04.670Z,99060.00
2018-10-12T05:01:35.369Z,99053.00
2018-10-12T05:04:05.805Z,99037.00
2018-10-12T05:06:36.180Z,99031.00
2018-10-12T05:09:08.769Z,99034.00
2018-10-12T05:11:39.241Z,99035.00
2018-10-12T05:14:09.800Z,99043.00
2018-10-12T05:16:40.048Z,99038.00
2018-10-12T05:19:10.124Z,99035.00
2018-10-12T05:21:40.848Z,99027.00
2018-10-12T05:24:11.351Z,99043.00
2018-10-12T05:26:42.345Z,99043.00
2018-10-12T05:29:12.462Z,99034.00
2018-10-12T05:31:42.782Z,99043.00
2018-10-12T05:34:13.573Z,99055.00
2018-10-12T05:36:44.718Z,99048.00
2018-10-12T05:39:15.596Z,99044.00
2018-10-12T05:41:45.846Z,99065.00
2018-10-12T05:44:15.884Z,99056.00
2018-10-12T05:46:46.149Z,99061.00
2018-10-12T05:49:32.752Z,99060.00
2018-10-12T05:52:04.523Z,99068.00
2018-10-12T05:54:35.196Z,99058.00
2018-10-12T05:57:06.740Z,99052.00
2018-10-12T05:59:37.330Z,99061.00
2018-10-12T06:02:07.748Z,99062.00
2018-10-12T06:04:37.817Z,99072.00
2018-10-12T06:07:08.025Z,99076.00
2018-10-12T06:09:40.059Z,99070.00
2018-10-12T06:12:10.454Z,99080.00
2018-10-12T06:14:40.648Z,99080.00
2018-10-12T06:17:11.061Z,99082.00
2018-10-12T06:19:41.316Z,99077.00
2018-10-12T06:22:11.457Z,99093.00
2018-10-12T06:24:41.667Z,99073.00
2018-10-12T06:27:11.876Z,99085.00
2018-10-12T06:29:42.352Z,99087.00
2018-10-12T06:32:12.744Z,99081.00
2018-10-12T06:34:43.748Z,99077.00
2018-10-12T06:37:15.107Z,99078.00
2018-10-12T06:39:45.463Z,99087.00
2018-10-12T06:42:15.620Z,99064.00
2018-10-12T06:44:45.946Z,99075.00
2018-10-12T06:47:16.266Z,99079.00
2018-10-12T06:49:46.720Z,99075.00
2018-10-12T06:52:16.801Z,99076.00
2018-10-12T06:54:46.937Z,99066.00
2018-10-12T06:57:17.196Z,99073.00
2018-10-12T06:59:48.233Z,99070.00
2018-10-12T07:02:20.631Z,99065.00
2018-10-12T07:04:51.612Z,99057.00
2018-10-12T07:07:22.244Z,99060.00
2018-10-12T07:09:52.751Z,99074.00
2018-10-12T07:12:23.211Z,99077.00
2018-10-12T07:14:53.516Z,99069.00
2018-10-12T07:17:23.818Z,99067.00
2018-10-12T07:19:53.966Z,99069.00
2018-10-12T07:22:24.235Z,99070.00
2018-10-12T07:24:54.356Z,99064.00
2018-10-12T07:27:24.641Z,99083.00
2018-10-12T07:29:54.872Z,99064.00
2018-10-12T07:32:25.098Z,99069.00
2018-10-12T07:34:55.264Z,99063.00
2018-10-12T07:37:25.714Z,99069.00
2018-10-12T07:39:56.017Z,99066.00
2018-10-12T07:42:26.305Z,99071.00
2018-10-12T07:44:56.775Z,99079.00
2018-10-12T07:47:28.482Z,99065.00
2018-10-12T07:49:58.857Z,99071.00
2018-10-12T07:52:29.340Z,99072.00
2018-10-12T07:55:00.081Z,99066.00
2018-10-12T07:57:34.168Z,99063.00
2018-10-12T08:00:05.323Z,99067.00
2018-10-12T08:02:36.033Z,99070.00
2018-10-12T08:05:06.397Z,99054.00
2018-10-12T08:07:36.709Z,99085.00
2018-10-12T08:10:07.998Z,99066.00
2018-10-12T08:12:38.434Z,99077.00
2018-10-12T08:15:08.843Z,99089.00
2018-10-12T08:17:38.837Z,99095.00
2018-10-12T08:20:10.010Z,99117.00
2018-10-12T08:22:40.651Z,99126.00
2018-10-12T08:25:11.003Z,99121.00
2018-10-12T08:27:41.393Z,99126.00
2018-10-12T08:30:12.502Z,99116.00
2018-10-12T08:32:42.833Z,99143.00
2018-10-12T08:35:12.923Z,99136.00
2018-10-12T08:37:43.110Z,99127.00
2018-10-12T08:40:13.544Z,99137.00
2018-10-12T08:42:43.748Z,99147.00
2018-10-12T08:45:14.039Z,99128.00
2018-10-12T08:47:44.082Z,99160.00
2018-10-12T08:50:14.599Z,99160.00
2018-10-12T08:52:45.076Z,99173.00
2018-10-12T08:55:15.728Z,99153.00
2018-10-12T08:57:46.338Z,99175.00
2018-10-12T09:00:16.838Z,99176.00
2018-10-12T09:02:47.005Z,99190.00
2018-10-12T09:05:17.975Z,99194.00
2018-10-12T09:07:48.501Z,99182.00
2018-10-12T09:10:18.740Z,99193.00
2018-10-12T09:12:49.129Z,99186.00
2018-10-12T09:15:19.196Z,99185.00
2018-10-12T09:17:49.674Z,99195.00
2018-10-12T09:20:20.689Z,99186.00
2018-10-12T09:22:50.931Z,99181.00
2018-10-12T09:25:21.111Z,99178.00
2018-10-12T09:27:51.541Z,99177.00
2018-10-12T09:30:22.444Z,99180.00
2018-10-12T09:32:52.746Z,99186.00
2018-10-12T09:35:22.885Z,99176.00
2018-10-12T09:37:53.148Z,99180.00
2018-10-12T09:40:23.451Z,99196.00
2018-10-12T09:42:53.478Z,99172.00
2018-10-12T09:45:23.815Z,99188.00
2018-10-12T09:47:54.162Z,99182.00
2018-10-12T09:50:25.361Z,99203.00
2018-10-12T09:52:55.956Z,99188.00
2018-10-12T09:55:26.310Z,99191.00
2018-10-12T09:57:56.807Z,99184.00
2018-10-12T10:00:31.943Z,99203.00
2018-10-12T10:03:07.215Z,99191.00
2018-10-12T10:05:38.084Z,99190.00
2018-10-12T10:08:08.437Z,99192.00
2018-10-12T10:10:38.752Z,99189.00
2018-10-12T10:13:09.315Z,99189.00
2018-10-12T10:15:39.918Z,99189.00
2018-10-12T10:18:13.235Z,99185.00
2018-10-12T10:20:43.614Z,99189.00
2018-10-12T10:23:13.673Z,99183.00
2018-10-12T10:25:45.325Z,99183.00
2018-10-12T10:28:15.575Z,99197.00
2018-10-12T10:30:46.012Z,99185.00
2018-10-12T10:33:16.125Z,99188.00
2018-10-12T10:35:46.231Z,99190.00
2018-10-12T10:38:16.556Z,99194.00
2018-10-12T10:40:46.751Z,99183.00
2018-10-12T10:43:17.020Z,99209.00
2018-10-12T10:45:47.552Z,99179.00
2018-10-12T10:48:18.924Z,99180.00
2018-10-12T10:50:49.078Z,99179.00
2018-10-12T10:53:19.069Z,99178.00
2018-10-12T10:55:49.363Z,99139.00
2018-10-12T10:58:19.587Z,99154.00
2018-10-12T11:00:50.274Z,99159.00
2018-10-12T11:03:20.494Z,99162.00
2018-10-12T11:05:50.864Z,99155.00
2018-10-12T11:08:20.939Z,99157.00
2018-10-12T11:10:50.999Z,99151.00
2018-10-12T11:13:21.163Z,99151.00
2018-10-12T11:15:51.328Z,99155.00
2018-10-12T11:18:21.532Z,99146.00
2018-10-12T11:20:51.601Z,99155.00
2018-10-12T11:23:21.986Z,99148.00
2018-10-12T11:25:52.325Z,99162.00
2018-10-12T11:28:22.957Z,99149.00
2018-10-12T11:30:53.073Z,99154.00
2018-10-12T11:33:23.471Z,99151.00
2018-10-12T11:35:54.827Z,99164.00
2018-10-12T11:38:25.003Z,99161.00
2018-10-12T11:40:55.229Z,99152.00
2018-10-12T11:43:32.716Z,99152.00
2018-10-12T11:46:03.976Z,99160.00
2018-10-12T11:48:34.140Z,99151.00
2018-10-12T11:51:04.285Z,99157.00
2018-10-12T11:53:35.535Z,99148.00
2018-10-12T11:56:06.543Z,99147.00
2018-10-12T11:58:36.557Z,99149.00
2018-10-12T12:01:07.090Z,99132.00
2018-10-12T12:03:37.345Z,99140.00
2018-10-12T12:06:08.250Z,99124.00
2018-10-12T12:08:38.685Z,99127.00
2018-10-12T12:11:09.544Z,99137.00
2018-10-12T12:13:39.749Z,99126.00
2018-10-12T12:16:09.861Z,99117.00
2018-10-12T12:18:40.071Z,99130.00
2018-10-12T12:21:10.018Z,99115.00
2018-10-12T12:23:40.091Z,99130.00
2018-10-12T12:26:10.266Z,99126.00
2018-10-12T12:28:40.683Z,99106.00
2018-10-12T12:31:10.818Z,99104.00
2018-10-12T12:33:40.982Z,99098.00
2018-10-12T12:36:14.253Z,99102.00
2018-10-12T12:38:45.241Z,99113.00
2018-10-12T12:41:15.329Z,99105.00
2018-10-12T12:43:46.169Z,99092.00
2018-10-12T12:46:16.804Z,99095.00
2018-10-12T12:48:47.290Z,99102.00
2018-10-12T12:51:17.471Z,99100.00
2018-10-12T12:53:48.062Z,99113.00
2018-10-12T12:56:18.170Z,99098.00
2018-10-12T12:58:49.501Z,99085.00
2018-10-12T13:01:19.593Z,99064.00
2018-10-12T13:03:49.945Z,99100.00
2018-10-12T13:06:20.397Z,99099.00
2018-10-12T13:08:50.551Z,99091.00
2018-10-12T13:11:20.715Z,99098.00
2018-10-12T13:13:50.818Z,99072.00
2018-10-12T13:16:21.380Z,99067.00
2018-10-12T13:18:51.701Z,99089.00
2018-10-12T13:21:21.958Z,99084.00
2018-10-12T13:23:52.165Z,99077.00
2018-10-12T13:26:22.554Z,99073.00
2018-10-12T13:28:52.735Z,99101.00
2018-10-12T13:49:23.298Z,99097.00
2018-10-12T13:51:53.751Z,99112.00
2018-10-12T13:54:24.142Z,99079.00
2018-10-12T13:56:58.942Z,99076.00
2018-10-12T13:59:30.857Z,99074.00
2018-10-12T14:02:01.262Z,99076.00
2018-10-12T14:04:31.580Z,99073.00
2018-10-12T14:07:01.884Z,99062.00
2018-10-12T14:09:32.004Z,99065.00
2018-10-12T14:12:02.601Z,99066.00
2018-10-12T14:14:32.935Z,99067.00
2018-10-12T14:17:03.711Z,99052.00
2018-10-12T14:19:33.902Z,99070.00
2018-10-12T14:23:18.114Z,99052.00
2018-10-12T14:25:48.516Z,99056.00
2018-10-12T14:28:18.584Z,99089.00
2018-10-12T14:30:48.815Z,99076.00
2018-10-12T14:33:18.989Z,99066.00
2018-10-12T14:35:49.807Z,99073.00
2018-10-12T14:38:20.102Z,99078.00
2018-10-12T14:40:50.274Z,99066.00
2018-10-12T14:43:20.598Z,99074.00
2018-10-12T14:45:50.678Z,99075.00
2018-10-12T14:48:21.037Z,99067.00
2018-10-12T14:50:51.280Z,99059.00
2018-10-12T14:53:22.353Z,99072.00
2018-10-12T14:55:53.002Z,99063.00
2018-10-12T14:58:23.378Z,99072.00
2018-10-12T15:00:54.174Z,99058.00
2018-10-12T15:03:24.453Z,99067.00
2018-10-12T15:05:55.528Z,99061.00
2018-10-12T15:08:26.018Z,99082.00
2018-10-12T15:10:56.487Z,99063.00
2018-10-12T15:13:26.568Z,99067.00
2018-10-12T15:15:56.774Z,99065.00
2018-10-12T15:18:26.813Z,99074.00
2018-10-12T15:20:57.141Z,99077.00
2018-10-12T15:23:27.555Z,99077.00
2018-10-12T15:25:59.572Z,99088.00
2018-10-12T15:28:29.917Z,99074.00
2018-10-12T15:31:00.625Z,99082.00
2018-10-12T15:33:30.842Z,99075.00
2018-10-12T15:36:01.710Z,99084.00
2018-10-12T15:38:32.598Z,99087.00
2018-10-12T15:41:03.297Z,99088.00
2018-10-12T15:43:33.612Z,99084.00
2018-10-12T15:46:03.814Z,99102.00
2018-10-12T15:48:34.108Z,99079.00
2018-10-12T15:51:05.827Z,99084.00
2018-10-12T15:53:36.110Z,99074.00
2018-10-12T15:56:06.206Z,99088.00
2018-10-12T15:58:36.871Z,99090.00
2018-10-12T16:01:07.373Z,99097.00
2018-10-12T16:03:37.399Z,99095.00
2018-10-12T16:06:07.947Z,99105.00
2018-10-12T16:08:39.102Z,99091.00
2018-10-12T16:11:09.430Z,99093.00
2018-10-12T16:13:39.782Z,99116.00
2018-10-12T16:16:10.004Z,99096.00
2018-10-12T16:18:40.951Z,99104.00
2018-10-12T16:21:11.522Z,99099.00
2018-10-12T16:23:42.953Z,99102.00
2018-10-12T16:26:21.029Z,99092.00
2018-10-12T16:28:51.181Z,99075.00
2018-10-12T16:31:21.629Z,99112.00
2018-10-12T16:33:51.814Z,99117.00
2018-10-12T16:36:22.544Z,99084.00
2018-10-12T16:38:52.525Z,99108.00
2018-10-12T16:41:23.953Z,99094.00
2018-10-12T16:43:54.574Z,99094.00
2018-10-12T16:46:25.407Z,99112.00
2018-10-12T16:48:55.597Z,99104.00
2018-10-12T16:51:25.887Z,99104.00
2018-10-12T16:53:56.339Z,99124.00
2018-10-12T16:56:26.960Z,99127.00
2018-10-12T16:58:59.123Z,99132.00
2018-10-12T17:01:31.348Z,99156.00
2018-10-12T17:04:01.772Z,99147.00
2018-10-12T17:06:32.137Z,99147.00
2018-10-12T17:09:02.998Z,99167.00
2018-10-12T17:11:34.579Z,99150.00
2018-10-12T17:14:05.961Z,99159.00
2018-10-12T17:16:36.194Z,99167.00
2018-10-12T17:19:07.141Z,99184.00
2018-10-12T17:21:38.629Z,99181.00
2018-10-12T17:24:08.875Z,99191.00
2018-10-12T17:26:39.017Z,99195.00
2018-10-12T17:29:09.381Z,99210.00
2018-10-12T17:31:39.554Z,99190.00
2018-10-12T17:34:09.858Z,99192.00
2018-10-12T17:36:39.961Z,99198.00
2018-10-12T17:39:13.105Z,99229.00
2018-10-12T17:41:44.144Z,99187.00
2018-10-12T17:44:14.383Z,99213.00
2018-10-12T17:46:44.791Z,99205.00
2018-10-12T17:49:15.344Z,99221.00
2018-10-12T17:51:45.674Z,99225.00
2018-10-12T17:54:15.988Z,99207.00
2018-10-12T17:56:46.080Z,99216.00
2018-10-12T17:59:16.373Z,99207.00
2018-10-12T18:01:46.536Z,99236.00
2018-10-12T18:04:16.728Z,99224.00
2018-10-12T18:06:46.960Z,99223.00
2018-10-12T18:09:17.251Z,99236.00
2018-10-12T18:11:47.660Z,99229.00
2018-10-12T18:14:18.029Z,99231.00
2018-10-12T18:16:48.319Z,99230.00
2018-10-12T18:19:18.819Z,99236.00
2018-10-12T18:21:48.926Z,99233.00
2018-10-12T18:24:19.208Z,99243.00
2018-10-12T18:26:49.256Z,99252.00
2018-10-12T18:29:19.710Z,99234.00
2018-10-12T18:31:50.169Z,99239.00
2018-10-12T18:34:22.177Z,99226.00
2018-10-12T18:36:52.353Z,99241.00
2018-10-12T18:39:22.962Z,99249.00
2018-10-12T18:41:53.116Z,99242.00
2018-10-12T18:44:23.457Z,99246.00
2018-10-12T18:46:53.765Z,99221.00
2018-10-12T18:49:24.070Z,99240.00
2018-10-12T18:51:54.197Z,99245.00
2018-10-12T18:54:24.518Z,99247.00
2018-10-12T18:56:55.246Z,99231.00
2018-10-12T18:59:25.348Z,99231.00
2018-10-12T19:01:55.420Z,99251.00
2018-10-12T19:04:25.880Z,99250.00
2018-10-12T19:06:56.810Z,99251.00
2018-10-12T19:09:27.164Z,99244.00
2018-10-12T19:11:57.286Z,99260.00
2018-10-12T19:14:27.710Z,99243.00
2018-10-12T19:16:58.391Z,99264.00
2018-10-12T19:19:28.632Z,99270.00
2018-10-12T19:21:58.851Z,99266.00
2018-10-12T19:24:29.083Z,99266.00
2018-10-12T19:26:59.207Z,99258.00
2018-10-12T19:29:29.528Z,99264.00
2018-10-12T19:32:00.226Z,99270.00
2018-10-12T19:34:31.566Z,99280.00
2018-10-12T19:37:02.621Z,99270.00
2018-10-12T19:39:32.810Z,99263.00
2018-10-12T19:42:02.984Z,99280.00
2018-10-12T19:44:33.315Z,99275.00
2018-10-12T19:47:03.514Z,99294.00
2018-10-12T19:49:33.733Z,99282.00
2018-10-12T19:52:04.292Z,99271.00
2018-10-12T19:54:34.526Z,99266.00
2018-10-12T19:57:06.637Z,99286.00
2018-10-12T19:59:37.110Z,99308.00
2018-10-12T20:02:07.342Z,99281.00
2018-10-12T20:04:37.556Z,99279.00
2018-10-12T20:07:07.853Z,99315.00
2018-10-12T20:09:37.884Z,99300.00
2018-10-12T20:12:08.991Z,99310.00
2018-10-12T20:14:39.607Z,99309.00
2018-10-12T20:17:09.763Z,99294.00
2018-10-12T20:19:40.428Z,99307.00
2018-10-12T20:22:11.527Z,99309.00
2018-10-12T20:24:42.746Z,99305.00
2018-10-12T20:27:12.874Z,99313.00
2018-10-12T20:29:43.156Z,99299.00
2018-10-12T20:32:13.260Z,99316.00
2018-10-12T20:34:43.578Z,99308.00
2018-10-12T20:37:13.912Z,99326.00
2018-10-12T20:39:44.146Z,99324.00
2018-10-12T20:42:14.229Z,99311.00
2018-10-12T20:44:44.438Z,99330.00
2018-10-12T20:47:14.595Z,99326.00
2018-10-12T20:49:45.108Z,99333.00
2018-10-12T20:52:15.300Z,99326.00
2018-10-12T20:54:45.718Z,99327.00
2018-10-12T20:57:15.875Z,99317.00
2018-10-12T20:59:46.656Z,99319.00
2018-10-12T21:02:16.843Z,99317.00
2018-10-12T21:04:46.948Z,99328.00
2018-10-12T21:07:17.357Z,99336.00
2018-10-12T21:09:47.749Z,99329.00
2018-10-12T21:12:17.718Z,99339.00
2018-10-12T21:14:48.550Z,99334.00
2018-10-12T21:17:19.152Z,99348.00
2018-10-12T21:19:49.430Z,99347.00
2018-10-12T21:22:19.614Z,99341.00
2018-10-12T21:24:50.029Z,99350.00
2018-10-12T21:27:20.075Z,99353.00
2018-10-12T21:29:50.371Z,99364.00
2018-10-12T21:32:20.708Z,99347.00
2018-10-12T21:34:51.216Z,99356.00
2018-10-12T21:37:22.155Z,99281.00
2018-10-12T21:39:52.429Z,99349.00
2018-10-12T21:42:22.663Z,99341.00
2018-10-12T21:44:52.941Z,99343.00
2018-10-12T21:47:23.007Z,99352.00
2018-10-12T21:49:55.533Z,99336.00
2018-10-12T21:52:25.685Z,99340.00
2018-10-12T21:54:55.998Z,99332.00
2018-10-12T21:57:26.609Z,99341.00
2018-10-12T21:59:57.337Z,99344.00
2018-10-12T22:02:27.903Z,99338.00
2018-10-12T22:04:58.112Z,99327.00
2018-10-12T22:07:28.357Z,99340.00
2018-10-12T22:09:58.403Z,99333.00
2018-10-12T22:12:28.710Z,99344.00
2018-10-12T22:14:59.930Z,99338.00
2018-10-12T22:17:30.093Z,99349.00
2018-10-12T22:20:00.222Z,99364.00
2018-10-12T22:22:30.521Z,99354.00
2018-10-12T22:25:00.989Z,99358.00
2018-10-12T22:27:31.757Z,99354.00
2018-10-12T22:30:02.211Z,99355.00
2018-10-12T22:32:32.228Z,99363.00
2018-10-12T22:35:02.514Z,99365.00
2018-10-12T22:37:32.801Z,99363.00
2018-10-12T22:40:03.353Z,99362.00
2018-10-12T22:42:33.500Z,99363.00
2018-10-12T22:45:03.812Z,99363.00
2018-10-12T22:47:34.154Z,99364.00
2018-10-12T22:50:04.869Z,99343.00
2018-10-12T22:52:35.340Z,99346.00
2018-10-12T22:55:06.298Z,99341.00
2018-10-12T22:57:36.435Z,99350.00
2018-10-12T23:00:06.962Z,99361.00
2018-10-12T23:02:37.428Z,99353.00
2018-10-12T23:05:08.226Z,99341.00
2018-10-12T23:07:38.837Z,99368.00
2018-10-12T23:10:09.426Z,99362.00
2018-10-12T23:12:39.798Z,99368.00
2018-10-12T23:15:10.112Z,99365.00
2018-10-12T23:17:46.898Z,99377.00
2018-10-12T23:20:17.292Z,99376.00
2018-10-12T23:22:47.596Z,99378.00
2018-10-12T23:25:17.717Z,99362.00
2018-10-12T23:27:47.972Z,99362.00
2018-10-12T23:30:18.444Z,99355.00
2018-10-12T23:32:50.773Z,99364.00
2018-10-12T23:35:21.432Z,99364.00
2018-10-12T23:37:51.799Z,99373.00
2018-10-12T23:40:22.064Z,99361.00
2018-10-12T23:42:52.544Z,99365.00
2018-10-12T23:45:22.654Z,99353.00
2018-10-12T23:47:52.876Z,99343.00
2018-10-12T23:50:22.998Z,99351.00
2018-10-12T23:52:53.943Z,99357.00
2018-10-12T23:55:24.578Z,99353.00
2018-10-12T23:57:54.580Z,99340.00
